Tuscola, Illinois
Current Conditions -  °F | °C
As of 9:02 PM on Monday 22 Dec 2014 (Local Time) from KCMI Reporting Station
Light Rain Light Rain  
Wind Chill: 38°   Ceiling: 300
Heat Index: 45°   Visibility: 2.5mi
Dew Point: 44°   Wind: 16mph
Humidity: 97%   Direction: 130°SE
Pressure: 29.58"   Gusts: NA
Location:  39.8°N, 88.28°W
Report Text: KCMI 230302Z 13014KT 2 1/2SM -RA BR OVC003 07/07 A2958 RMK AO2 TWR VIS 3 P0000 T00720067
Loading
Personal Weather Stations






























Interactive Weather Map New forecast layout! Learn more

10-Day Weather Forecast

Advertisements
Track Severe Weather on mobile